sensor_id;sensor_type;location;lat;lon;timestamp;P1;durP1;ratioP1;P2;durP2;ratioP2
31872;SDS011;22407;42.820;23.374;2024-02-21T00:00:35;34.43;;;17.57;;
31872;SDS011;22407;42.820;23.374;2024-02-21T00:03:03;31.50;;;16.35;;
31872;SDS011;22407;42.820;23.374;2024-02-21T00:05:30;32.30;;;16.38;;
31872;SDS011;22407;42.820;23.374;2024-02-21T00:07:55;33.25;;;16.30;;
31872;SDS011;22407;42.820;23.374;2024-02-21T00:10:23;32.07;;;17.03;;
31872;SDS011;22407;42.820;23.374;2024-02-21T00:12:48;32.40;;;15.23;;
31872;SDS011;22407;42.820;23.374;2024-02-21T00:15:14;30.57;;;15.23;;
31872;SDS011;22407;42.820;23.374;2024-02-21T00:17:39;29.43;;;14.97;;
31872;SDS011;22407;42.820;23.374;2024-02-21T00:20:06;31.17;;;15.80;;
31872;SDS011;22407;42.820;23.374;2024-02-21T00:22:32;32.95;;;16.75;;
31872;SDS011;22407;42.820;23.374;2024-02-21T00:24:58;32.20;;;15.60;;
31872;SDS011;22407;42.820;23.374;2024-02-21T00:27:24;31.88;;;16.00;;
31872;SDS011;22407;42.820;23.374;2024-02-21T00:29:50;32.63;;;16.70;;
31872;SDS011;22407;42.820;23.374;2024-02-21T00:32:15;31.83;;;16.43;;
31872;SDS011;22407;42.820;23.374;2024-02-21T00:34:41;30.65;;;15.90;;
31872;SDS011;22407;42.820;23.374;2024-02-21T00:37:06;29.17;;;14.23;;
31872;SDS011;22407;42.820;23.374;2024-02-21T00:39:32;31.60;;;14.98;;
31872;SDS011;22407;42.820;23.374;2024-02-21T00:41:58;31.83;;;15.10;;
31872;SDS011;22407;42.820;23.374;2024-02-21T00:44:23;27.93;;;14.40;;
31872;SDS011;22407;42.820;23.374;2024-02-21T00:46:49;28.20;;;14.43;;
31872;SDS011;22407;42.820;23.374;2024-02-21T00:49:14;25.27;;;13.10;;
31872;SDS011;22407;42.820;23.374;2024-02-21T00:51:40;26.00;;;13.53;;
31872;SDS011;22407;42.820;23.374;2024-02-21T00:54:05;30.15;;;14.43;;
31872;SDS011;22407;42.820;23.374;2024-02-21T00:56:31;29.73;;;14.90;;
31872;SDS011;22407;42.820;23.374;2024-02-21T00:58:57;26.50;;;14.65;;
31872;SDS011;22407;42.820;23.374;2024-02-21T01:01:23;29.07;;;13.80;;
31872;SDS011;22407;42.820;23.374;2024-02-21T01:03:51;27.63;;;14.05;;
31872;SDS011;22407;42.820;23.374;2024-02-21T01:06:19;27.95;;;14.07;;
31872;SDS011;22407;42.820;23.374;2024-02-21T01:08:46;25.50;;;13.27;;
31872;SDS011;22407;42.820;23.374;2024-02-21T01:11:13;26.25;;;13.70;;
31872;SDS011;22407;42.820;23.374;2024-02-21T01:13:41;25.02;;;13.15;;
31872;SDS011;22407;42.820;23.374;2024-02-21T01:16:07;25.08;;;12.27;;
31872;SDS011;22407;42.820;23.374;2024-02-21T01:18:33;24.93;;;12.83;;
31872;SDS011;22407;42.820;23.374;2024-02-21T01:20:59;25.42;;;12.85;;
31872;SDS011;22407;42.820;23.374;2024-02-21T01:23:25;22.77;;;12.17;;
31872;SDS011;22407;42.820;23.374;2024-02-21T01:25:50;23.25;;;12.45;;
31872;SDS011;22407;42.820;23.374;2024-02-21T01:28:16;26.93;;;13.60;;
31872;SDS011;22407;42.820;23.374;2024-02-21T01:30:42;26.30;;;13.40;;
31872;SDS011;22407;42.820;23.374;2024-02-21T01:33:07;23.47;;;12.43;;
31872;SDS011;22407;42.820;23.374;2024-02-21T01:35:34;27.33;;;13.98;;
31872;SDS011;22407;42.820;23.374;2024-02-21T01:37:59;23.83;;;12.40;;
31872;SDS011;22407;42.820;23.374;2024-02-21T01:40:25;23.15;;;11.90;;
31872;SDS011;22407;42.820;23.374;2024-02-21T01:42:50;22.83;;;11.67;;
31872;SDS011;22407;42.820;23.374;2024-02-21T01:45:18;24.17;;;12.55;;
31872;SDS011;22407;42.820;23.374;2024-02-21T01:47:44;25.60;;;12.70;;
31872;SDS011;22407;42.820;23.374;2024-02-21T01:50:10;24.20;;;12.32;;
31872;SDS011;22407;42.820;23.374;2024-02-21T01:52:39;22.30;;;11.65;;
31872;SDS011;22407;42.820;23.374;2024-02-21T01:55:05;22.90;;;11.97;;
31872;SDS011;22407;42.820;23.374;2024-02-21T01:57:31;22.00;;;11.52;;
31872;SDS011;22407;42.820;23.374;2024-02-21T01:59:57;22.45;;;11.85;;
31872;SDS011;22407;42.820;23.374;2024-02-21T02:02:23;22.77;;;11.40;;
31872;SDS011;22407;42.820;23.374;2024-02-21T02:04:49;23.48;;;11.40;;
31872;SDS011;22407;42.820;23.374;2024-02-21T02:07:16;23.70;;;11.82;;
31872;SDS011;22407;42.820;23.374;2024-02-21T02:09:42;22.03;;;11.57;;
31872;SDS011;22407;42.820;23.374;2024-02-21T02:12:08;21.85;;;11.30;;
31872;SDS011;22407;42.820;23.374;2024-02-21T02:14:34;20.38;;;10.95;;
31872;SDS011;22407;42.820;23.374;2024-02-21T02:17:00;21.50;;;11.07;;
31872;SDS011;22407;42.820;23.374;2024-02-21T02:19:25;21.97;;;10.77;;
31872;SDS011;22407;42.820;23.374;2024-02-21T02:21:51;21.55;;;10.82;;
31872;SDS011;22407;42.820;23.374;2024-02-21T02:24:22;20.13;;;10.43;;
31872;SDS011;22407;42.820;23.374;2024-02-21T02:26:49;20.92;;;10.38;;
31872;SDS011;22407;42.820;23.374;2024-02-21T02:29:15;20.33;;;10.50;;
31872;SDS011;22407;42.820;23.374;2024-02-21T02:31:41;26.10;;;13.43;;
31872;SDS011;22407;42.820;23.374;2024-02-21T02:34:07;22.13;;;11.95;;
31872;SDS011;22407;42.820;23.374;2024-02-21T02:36:33;22.37;;;10.80;;
31872;SDS011;22407;42.820;23.374;2024-02-21T02:38:59;20.20;;;10.10;;
31872;SDS011;22407;42.820;23.374;2024-02-21T02:41:25;21.25;;;10.77;;
31872;SDS011;22407;42.820;23.374;2024-02-21T02:43:50;23.47;;;11.07;;
31872;SDS011;22407;42.820;23.374;2024-02-21T02:46:16;20.60;;;10.63;;
31872;SDS011;22407;42.820;23.374;2024-02-21T02:48:41;20.58;;;10.57;;
31872;SDS011;22407;42.820;23.374;2024-02-21T02:51:07;19.97;;;10.10;;
31872;SDS011;22407;42.820;23.374;2024-02-21T02:53:33;21.98;;;11.68;;
31872;SDS011;22407;42.820;23.374;2024-02-21T02:55:58;21.63;;;11.33;;
31872;SDS011;22407;42.820;23.374;2024-02-21T02:58:24;21.23;;;10.63;;
31872;SDS011;22407;42.820;23.374;2024-02-21T03:00:49;22.35;;;11.13;;
31872;SDS011;22407;42.820;23.374;2024-02-21T03:03:15;20.97;;;11.10;;
31872;SDS011;22407;42.820;23.374;2024-02-21T03:05:40;21.93;;;11.33;;
31872;SDS011;22407;42.820;23.374;2024-02-21T03:08:06;21.67;;;11.00;;
31872;SDS011;22407;42.820;23.374;2024-02-21T03:10:35;21.40;;;10.80;;
31872;SDS011;22407;42.820;23.374;2024-02-21T03:13:01;23.48;;;12.25;;
31872;SDS011;22407;42.820;23.374;2024-02-21T03:15:26;22.55;;;11.80;;
31872;SDS011;22407;42.820;23.374;2024-02-21T03:17:52;28.57;;;14.60;;
31872;SDS011;22407;42.820;23.374;2024-02-21T03:20:17;61.93;;;29.30;;
31872;SDS011;22407;42.820;23.374;2024-02-21T03:22:44;70.57;;;31.60;;
31872;SDS011;22407;42.820;23.374;2024-02-21T03:25:10;62.65;;;28.42;;
31872;SDS011;22407;42.820;23.374;2024-02-21T03:27:36;65.30;;;28.83;;
31872;SDS011;22407;42.820;23.374;2024-02-21T03:30:02;44.90;;;21.23;;
31872;SDS011;22407;42.820;23.374;2024-02-21T03:32:29;37.53;;;19.52;;
31872;SDS011;22407;42.820;23.374;2024-02-21T03:34:55;25.27;;;13.73;;
31872;SDS011;22407;42.820;23.374;2024-02-21T03:37:20;20.17;;;10.48;;
31872;SDS011;22407;42.820;23.374;2024-02-21T03:39:46;18.80;;;9.60;;
31872;SDS011;22407;42.820;23.374;2024-02-21T03:42:11;19.00;;;9.93;;
31872;SDS011;22407;42.820;23.374;2024-02-21T03:44:37;25.58;;;12.75;;
31872;SDS011;22407;42.820;23.374;2024-02-21T03:47:03;23.47;;;12.00;;
31872;SDS011;22407;42.820;23.374;2024-02-21T03:49:29;24.65;;;12.80;;
31872;SDS011;22407;42.820;23.374;2024-02-21T03:51:54;22.40;;;11.50;;
31872;SDS011;22407;42.820;23.374;2024-02-21T03:54:20;21.37;;;11.83;;
31872;SDS011;22407;42.820;23.374;2024-02-21T03:56:46;19.43;;;10.23;;
31872;SDS011;22407;42.820;23.374;2024-02-21T03:59:14;19.17;;;10.70;;
31872;SDS011;22407;42.820;23.374;2024-02-21T04:01:40;19.58;;;10.07;;
31872;SDS011;22407;42.820;23.374;2024-02-21T04:04:06;21.50;;;11.13;;
31872;SDS011;22407;42.820;23.374;2024-02-21T04:06:31;21.85;;;11.68;;
31872;SDS011;22407;42.820;23.374;2024-02-21T04:08:57;26.50;;;14.20;;
31872;SDS011;22407;42.820;23.374;2024-02-21T04:11:23;27.47;;;14.33;;
31872;SDS011;22407;42.820;23.374;2024-02-21T04:13:48;27.88;;;14.15;;
31872;SDS011;22407;42.820;23.374;2024-02-21T04:16:15;27.45;;;13.85;;
31872;SDS011;22407;42.820;23.374;2024-02-21T04:18:41;24.70;;;13.53;;
31872;SDS011;22407;42.820;23.374;2024-02-21T04:21:08;26.40;;;13.13;;
31872;SDS011;22407;42.820;23.374;2024-02-21T04:23:34;44.72;;;20.50;;
31872;SDS011;22407;42.820;23.374;2024-02-21T04:26:00;46.70;;;21.27;;
31872;SDS011;22407;42.820;23.374;2024-02-21T04:28:26;35.73;;;17.17;;
31872;SDS011;22407;42.820;23.374;2024-02-21T04:30:52;38.10;;;17.70;;
31872;SDS011;22407;42.820;23.374;2024-02-21T04:33:18;30.23;;;14.63;;
31872;SDS011;22407;42.820;23.374;2024-02-21T04:35:43;28.63;;;15.35;;
31872;SDS011;22407;42.820;23.374;2024-02-21T04:38:09;40.00;;;17.63;;
31872;SDS011;22407;42.820;23.374;2024-02-21T04:40:34;50.75;;;18.48;;
31872;SDS011;22407;42.820;23.374;2024-02-21T04:43:00;51.60;;;20.90;;
31872;SDS011;22407;42.820;23.374;2024-02-21T04:45:25;40.17;;;18.50;;
31872;SDS011;22407;42.820;23.374;2024-02-21T04:47:51;31.07;;;15.07;;
31872;SDS011;22407;42.820;23.374;2024-02-21T04:50:16;33.87;;;16.13;;
31872;SDS011;22407;42.820;23.374;2024-02-21T04:52:42;36.30;;;17.37;;
31872;SDS011;22407;42.820;23.374;2024-02-21T04:55:08;40.90;;;19.02;;
31872;SDS011;22407;42.820;23.374;2024-02-21T04:57:34;41.78;;;18.80;;
31872;SDS011;22407;42.820;23.374;2024-02-21T04:59:59;31.07;;;15.70;;
31872;SDS011;22407;42.820;23.374;2024-02-21T05:02:25;28.00;;;15.23;;
31872;SDS011;22407;42.820;23.374;2024-02-21T05:04:52;29.05;;;14.50;;
31872;SDS011;22407;42.820;23.374;2024-02-21T05:07:17;30.83;;;15.25;;
31872;SDS011;22407;42.820;23.374;2024-02-21T05:09:44;30.63;;;15.18;;
31872;SDS011;22407;42.820;23.374;2024-02-21T05:12:10;31.00;;;15.95;;
31872;SDS011;22407;42.820;23.374;2024-02-21T05:14:36;30.67;;;15.97;;
31872;SDS011;22407;42.820;23.374;2024-02-21T05:17:02;28.05;;;14.00;;
31872;SDS011;22407;42.820;23.374;2024-02-21T05:19:31;33.80;;;15.23;;
31872;SDS011;22407;42.820;23.374;2024-02-21T05:21:56;26.73;;;13.13;;
31872;SDS011;22407;42.820;23.374;2024-02-21T05:24:24;29.60;;;15.77;;
31872;SDS011;22407;42.820;23.374;2024-02-21T05:26:50;26.20;;;13.60;;
31872;SDS011;22407;42.820;23.374;2024-02-21T05:29:16;24.05;;;12.00;;
31872;SDS011;22407;42.820;23.374;2024-02-21T05:34:16;31.23;;;13.90;;
31872;SDS011;22407;42.820;23.374;2024-02-21T05:36:45;28.15;;;13.02;;
31872;SDS011;22407;42.820;23.374;2024-02-21T05:39:12;23.77;;;11.82;;
31872;SDS011;22407;42.820;23.374;2024-02-21T05:41:38;24.55;;;12.93;;
31872;SDS011;22407;42.820;23.374;2024-02-21T05:44:03;29.73;;;14.57;;
31872;SDS011;22407;42.820;23.374;2024-02-21T05:46:29;27.73;;;12.33;;
31872;SDS011;22407;42.820;23.374;2024-02-21T05:48:54;21.70;;;11.00;;
31872;SDS011;22407;42.820;23.374;2024-02-21T05:51:20;21.50;;;11.20;;
31872;SDS011;22407;42.820;23.374;2024-02-21T05:53:46;20.63;;;10.93;;
31872;SDS011;22407;42.820;23.374;2024-02-21T05:56:11;21.85;;;11.10;;
31872;SDS011;22407;42.820;23.374;2024-02-21T05:58:37;22.67;;;11.57;;
31872;SDS011;22407;42.820;23.374;2024-02-21T06:01:03;25.25;;;10.90;;
31872;SDS011;22407;42.820;23.374;2024-02-21T06:03:30;26.45;;;14.43;;
31872;SDS011;22407;42.820;23.374;2024-02-21T06:05:56;17.48;;;9.40;;
31872;SDS011;22407;42.820;23.374;2024-02-21T06:08:21;28.53;;;12.87;;
31872;SDS011;22407;42.820;23.374;2024-02-21T06:10:47;35.57;;;16.60;;
31872;SDS011;22407;42.820;23.374;2024-02-21T06:13:13;19.37;;;9.57;;
31872;SDS011;22407;42.820;23.374;2024-02-21T06:15:39;14.65;;;7.85;;
31872;SDS011;22407;42.820;23.374;2024-02-21T06:18:05;15.27;;;7.38;;
31872;SDS011;22407;42.820;23.374;2024-02-21T06:20:31;15.90;;;8.07;;
31872;SDS011;22407;42.820;23.374;2024-02-21T06:22:56;16.40;;;8.83;;
31872;SDS011;22407;42.820;23.374;2024-02-21T06:25:22;16.10;;;7.82;;
31872;SDS011;22407;42.820;23.374;2024-02-21T06:27:48;14.93;;;7.97;;
31872;SDS011;22407;42.820;23.374;2024-02-21T06:30:13;19.08;;;10.05;;
31872;SDS011;22407;42.820;23.374;2024-02-21T06:32:39;19.00;;;10.30;;
31872;SDS011;22407;42.820;23.374;2024-02-21T06:35:05;20.17;;;10.20;;
31872;SDS011;22407;42.820;23.374;2024-02-21T06:37:30;18.47;;;9.90;;
31872;SDS011;22407;42.820;23.374;2024-02-21T06:39:57;19.88;;;10.55;;
31872;SDS011;22407;42.820;23.374;2024-02-21T06:42:26;25.95;;;14.40;;
31872;SDS011;22407;42.820;23.374;2024-02-21T06:44:51;57.03;;;29.95;;
31872;SDS011;22407;42.820;23.374;2024-02-21T06:47:17;53.37;;;28.40;;
31872;SDS011;22407;42.820;23.374;2024-02-21T06:49:43;57.83;;;30.13;;
31872;SDS011;22407;42.820;23.374;2024-02-21T06:52:08;38.87;;;20.23;;
31872;SDS011;22407;42.820;23.374;2024-02-21T06:54:34;34.77;;;17.83;;
31872;SDS011;22407;42.820;23.374;2024-02-21T06:56:59;63.53;;;26.05;;
31872;SDS011;22407;42.820;23.374;2024-02-21T06:59:25;31.80;;;15.73;;
31872;SDS011;22407;42.820;23.374;2024-02-21T07:01:54;26.47;;;12.33;;
31872;SDS011;22407;42.820;23.374;2024-02-21T07:04:22;22.45;;;11.48;;
31872;SDS011;22407;42.820;23.374;2024-02-21T07:06:47;25.13;;;12.90;;
31872;SDS011;22407;42.820;23.374;2024-02-21T07:09:13;22.53;;;11.23;;
31872;SDS011;22407;42.820;23.374;2024-02-21T07:11:38;20.33;;;10.50;;
31872;SDS011;22407;42.820;23.374;2024-02-21T07:14:04;19.37;;;9.67;;
31872;SDS011;22407;42.820;23.374;2024-02-21T07:16:29;17.75;;;9.25;;
31872;SDS011;22407;42.820;23.374;2024-02-21T07:18:57;18.75;;;9.75;;
31872;SDS011;22407;42.820;23.374;2024-02-21T07:21:23;19.83;;;9.77;;
31872;SDS011;22407;42.820;23.374;2024-02-21T07:23:48;22.40;;;11.50;;
31872;SDS011;22407;42.820;23.374;2024-02-21T07:26:14;24.48;;;12.98;;
31872;SDS011;22407;42.820;23.374;2024-02-21T07:28:39;22.23;;;11.53;;
31872;SDS011;22407;42.820;23.374;2024-02-21T07:31:05;32.33;;;16.30;;
31872;SDS011;22407;42.820;23.374;2024-02-21T07:33:31;30.50;;;16.60;;
31872;SDS011;22407;42.820;23.374;2024-02-21T07:35:57;21.60;;;12.05;;
31872;SDS011;22407;42.820;23.374;2024-02-21T07:38:23;19.43;;;10.90;;
31872;SDS011;22407;42.820;23.374;2024-02-21T07:40:48;19.67;;;10.32;;
31872;SDS011;22407;42.820;23.374;2024-02-21T07:43:14;19.53;;;9.17;;
31872;SDS011;22407;42.820;23.374;2024-02-21T07:45:39;20.73;;;10.33;;
31872;SDS011;22407;42.820;23.374;2024-02-21T07:48:05;20.50;;;10.65;;
31872;SDS011;22407;42.820;23.374;2024-02-21T07:50:31;20.05;;;9.70;;
31872;SDS011;22407;42.820;23.374;2024-02-21T07:52:57;20.40;;;9.30;;
31872;SDS011;22407;42.820;23.374;2024-02-21T07:55:22;20.23;;;8.85;;
31872;SDS011;22407;42.820;23.374;2024-02-21T07:57:48;19.47;;;9.70;;
31872;SDS011;22407;42.820;23.374;2024-02-21T08:00:14;19.13;;;9.38;;
31872;SDS011;22407;42.820;23.374;2024-02-21T08:02:45;26.75;;;12.20;;
31872;SDS011;22407;42.820;23.374;2024-02-21T08:05:11;25.88;;;12.68;;
31872;SDS011;22407;42.820;23.374;2024-02-21T08:07:40;22.80;;;11.13;;
31872;SDS011;22407;42.820;23.374;2024-02-21T08:10:06;19.85;;;9.68;;
31872;SDS011;22407;42.820;23.374;2024-02-21T08:12:33;20.35;;;9.68;;
31872;SDS011;22407;42.820;23.374;2024-02-21T08:14:59;23.57;;;11.60;;
31872;SDS011;22407;42.820;23.374;2024-02-21T08:17:26;29.80;;;14.50;;
31872;SDS011;22407;42.820;23.374;2024-02-21T08:19:51;25.73;;;12.93;;
31872;SDS011;22407;42.820;23.374;2024-02-21T08:22:17;55.17;;;21.30;;
31872;SDS011;22407;42.820;23.374;2024-02-21T08:24:42;24.07;;;11.40;;
31872;SDS011;22407;42.820;23.374;2024-02-21T08:27:08;43.17;;;18.20;;
31872;SDS011;22407;42.820;23.374;2024-02-21T08:29:34;24.33;;;11.37;;
31872;SDS011;22407;42.820;23.374;2024-02-21T08:31:59;20.63;;;10.47;;
31872;SDS011;22407;42.820;23.374;2024-02-21T08:34:25;22.60;;;11.00;;
31872;SDS011;22407;42.820;23.374;2024-02-21T08:36:50;22.37;;;10.77;;
31872;SDS011;22407;42.820;23.374;2024-02-21T08:39:16;23.20;;;11.27;;
31872;SDS011;22407;42.820;23.374;2024-02-21T08:41:42;28.07;;;12.73;;
31872;SDS011;22407;42.820;23.374;2024-02-21T08:44:08;59.10;;;24.52;;
31872;SDS011;22407;42.820;23.374;2024-02-21T08:46:33;32.63;;;13.77;;
31872;SDS011;22407;42.820;23.374;2024-02-21T08:48:59;26.02;;;11.50;;
31872;SDS011;22407;42.820;23.374;2024-02-21T08:51:24;24.13;;;10.77;;
31872;SDS011;22407;42.820;23.374;2024-02-21T08:53:50;22.37;;;10.93;;
31872;SDS011;22407;42.820;23.374;2024-02-21T08:56:21;26.50;;;12.40;;
31872;SDS011;22407;42.820;23.374;2024-02-21T08:58:47;27.10;;;12.02;;
31872;SDS011;22407;42.820;23.374;2024-02-21T09:01:12;24.27;;;11.00;;
31872;SDS011;22407;42.820;23.374;2024-02-21T09:03:38;26.88;;;12.20;;
31872;SDS011;22407;42.820;23.374;2024-02-21T09:06:06;37.73;;;14.77;;
31872;SDS011;22407;42.820;23.374;2024-02-21T09:08:41;29.50;;;15.32;;
31872;SDS011;22407;42.820;23.374;2024-02-21T09:11:06;24.40;;;11.45;;
31872;SDS011;22407;42.820;23.374;2024-02-21T09:13:32;29.50;;;12.70;;
31872;SDS011;22407;42.820;23.374;2024-02-21T09:15:57;26.73;;;11.93;;
31872;SDS011;22407;42.820;23.374;2024-02-21T09:18:23;26.13;;;11.80;;
31872;SDS011;22407;42.820;23.374;2024-02-21T09:20:48;32.22;;;13.93;;
31872;SDS011;22407;42.820;23.374;2024-02-21T09:23:14;27.13;;;13.13;;
31872;SDS011;22407;42.820;23.374;2024-02-21T09:25:40;35.23;;;16.30;;
31872;SDS011;22407;42.820;23.374;2024-02-21T09:28:06;24.27;;;11.27;;
31872;SDS011;22407;42.820;23.374;2024-02-21T09:30:31;22.70;;;10.00;;
31872;SDS011;22407;42.820;23.374;2024-02-21T09:32:58;21.13;;;9.25;;
31872;SDS011;22407;42.820;23.374;2024-02-21T09:35:25;32.92;;;15.43;;
31872;SDS011;22407;42.820;23.374;2024-02-21T09:37:53;27.13;;;12.20;;
31872;SDS011;22407;42.820;23.374;2024-02-21T09:40:19;23.33;;;10.37;;
31872;SDS011;22407;42.820;23.374;2024-02-21T09:42:44;24.65;;;9.73;;
31872;SDS011;22407;42.820;23.374;2024-02-21T09:45:22;40.13;;;13.02;;
31872;SDS011;22407;42.820;23.374;2024-02-21T09:50:44;20.50;;;8.68;;
31872;SDS011;22407;42.820;23.374;2024-02-21T09:53:12;20.30;;;9.15;;
31872;SDS011;22407;42.820;23.374;2024-02-21T09:55:40;17.65;;;8.73;;
31872;SDS011;22407;42.820;23.374;2024-02-21T09:58:08;35.42;;;14.93;;
31872;SDS011;22407;42.820;23.374;2024-02-21T10:00:35;27.67;;;11.50;;
31872;SDS011;22407;42.820;23.374;2024-02-21T10:03:01;25.90;;;11.07;;
31872;SDS011;22407;42.820;23.374;2024-02-21T10:05:34;21.27;;;10.13;;
31872;SDS011;22407;42.820;23.374;2024-02-21T10:08:00;25.27;;;11.68;;
31872;SDS011;22407;42.820;23.374;2024-02-21T10:10:26;22.88;;;10.93;;
31872;SDS011;22407;42.820;23.374;2024-02-21T10:12:53;19.03;;;8.70;;
31872;SDS011;22407;42.820;23.374;2024-02-21T10:15:23;24.17;;;10.85;;
31872;SDS011;22407;42.820;23.374;2024-02-21T10:17:50;27.75;;;12.95;;
31872;SDS011;22407;42.820;23.374;2024-02-21T10:20:23;27.88;;;12.23;;
31872;SDS011;22407;42.820;23.374;2024-02-21T10:22:48;21.00;;;9.97;;
31872;SDS011;22407;42.820;23.374;2024-02-21T10:25:14;18.48;;;8.73;;
31872;SDS011;22407;42.820;23.374;2024-02-21T10:27:40;18.43;;;8.83;;
31872;SDS011;22407;42.820;23.374;2024-02-21T10:30:07;19.50;;;8.90;;
31872;SDS011;22407;42.820;23.374;2024-02-21T10:33:01;19.25;;;9.38;;
31872;SDS011;22407;42.820;23.374;2024-02-21T10:35:33;15.85;;;7.72;;
31872;SDS011;22407;42.820;23.374;2024-02-21T10:37:59;18.27;;;8.77;;
31872;SDS011;22407;42.820;23.374;2024-02-21T10:40:26;19.10;;;8.20;;
31872;SDS011;22407;42.820;23.374;2024-02-21T10:43:02;18.83;;;8.35;;
31872;SDS011;22407;42.820;23.374;2024-02-21T10:48:12;16.33;;;8.10;;
31872;SDS011;22407;42.820;23.374;2024-02-21T10:56:10;16.30;;;7.30;;
31872;SDS011;22407;42.820;23.374;2024-02-21T10:58:41;19.15;;;8.50;;
31872;SDS011;22407;42.820;23.374;2024-02-21T11:01:09;24.05;;;10.65;;
31872;SDS011;22407;42.820;23.374;2024-02-21T11:03:35;18.40;;;7.78;;
31872;SDS011;22407;42.820;23.374;2024-02-21T11:06:02;18.80;;;7.83;;
31872;SDS011;22407;42.820;23.374;2024-02-21T11:08:30;20.85;;;9.13;;
31872;SDS011;22407;42.820;23.374;2024-02-21T11:10:56;18.20;;;8.10;;
31872;SDS011;22407;42.820;23.374;2024-02-21T11:13:30;15.85;;;7.10;;
31872;SDS011;22407;42.820;23.374;2024-02-21T11:16:08;14.10;;;6.53;;
31872;SDS011;22407;42.820;23.374;2024-02-21T11:18:38;15.80;;;7.60;;
31872;SDS011;22407;42.820;23.374;2024-02-21T11:21:04;18.58;;;7.47;;
31872;SDS011;22407;42.820;23.374;2024-02-21T11:23:30;13.02;;;6.00;;
31872;SDS011;22407;42.820;23.374;2024-02-21T11:28:31;15.00;;;7.10;;
31872;SDS011;22407;42.820;23.374;2024-02-21T11:31:07;13.63;;;6.60;;
31872;SDS011;22407;42.820;23.374;2024-02-21T11:33:34;12.05;;;5.53;;
31872;SDS011;22407;42.820;23.374;2024-02-21T11:36:00;14.00;;;6.30;;
31872;SDS011;22407;42.820;23.374;2024-02-21T11:38:26;12.30;;;5.80;;
31872;SDS011;22407;42.820;23.374;2024-02-21T11:40:55;13.60;;;6.20;;
31872;SDS011;22407;42.820;23.374;2024-02-21T11:43:20;13.75;;;5.88;;
31872;SDS011;22407;42.820;23.374;2024-02-21T11:45:46;11.73;;;5.33;;
31872;SDS011;22407;42.820;23.374;2024-02-21T11:48:11;13.60;;;6.20;;
31872;SDS011;22407;42.820;23.374;2024-02-21T11:50:37;13.90;;;6.38;;
31872;SDS011;22407;42.820;23.374;2024-02-21T11:53:04;12.70;;;5.88;;
31872;SDS011;22407;42.820;23.374;2024-02-21T11:55:30;16.07;;;6.83;;
31872;SDS011;22407;42.820;23.374;2024-02-21T11:57:56;14.00;;;6.40;;
31872;SDS011;22407;42.820;23.374;2024-02-21T12:00:22;11.83;;;5.47;;
31872;SDS011;22407;42.820;23.374;2024-02-21T12:02:49;12.50;;;5.38;;
31872;SDS011;22407;42.820;23.374;2024-02-21T12:05:16;12.40;;;5.20;;
31872;SDS011;22407;42.820;23.374;2024-02-21T12:07:41;12.48;;;6.07;;
31872;SDS011;22407;42.820;23.374;2024-02-21T12:10:10;11.93;;;5.40;;
31872;SDS011;22407;42.820;23.374;2024-02-21T12:12:39;13.05;;;6.00;;
31872;SDS011;22407;42.820;23.374;2024-02-21T12:15:06;13.68;;;5.95;;
31872;SDS011;22407;42.820;23.374;2024-02-21T12:17:33;14.13;;;5.97;;
31872;SDS011;22407;42.820;23.374;2024-02-21T12:20:00;18.37;;;6.50;;
31872;SDS011;22407;42.820;23.374;2024-02-21T12:22:29;13.75;;;5.93;;
31872;SDS011;22407;42.820;23.374;2024-02-21T12:24:57;9.73;;;4.65;;
31872;SDS011;22407;42.820;23.374;2024-02-21T12:27:23;11.18;;;4.75;;
31872;SDS011;22407;42.820;23.374;2024-02-21T12:29:51;11.85;;;5.50;;
31872;SDS011;22407;42.820;23.374;2024-02-21T12:32:17;11.80;;;5.00;;
31872;SDS011;22407;42.820;23.374;2024-02-21T12:34:42;11.03;;;4.37;;
31872;SDS011;22407;42.820;23.374;2024-02-21T12:37:08;15.30;;;6.00;;
31872;SDS011;22407;42.820;23.374;2024-02-21T12:39:33;13.97;;;6.20;;
31872;SDS011;22407;42.820;23.374;2024-02-21T12:41:59;21.67;;;8.27;;
31872;SDS011;22407;42.820;23.374;2024-02-21T12:44:25;16.73;;;7.20;;
31872;SDS011;22407;42.820;23.374;2024-02-21T12:46:50;15.00;;;6.00;;
31872;SDS011;22407;42.820;23.374;2024-02-21T12:49:19;14.65;;;7.30;;
31872;SDS011;22407;42.820;23.374;2024-02-21T12:51:44;14.75;;;7.28;;
31872;SDS011;22407;42.820;23.374;2024-02-21T12:54:12;15.30;;;7.27;;
31872;SDS011;22407;42.820;23.374;2024-02-21T12:56:37;14.75;;;6.68;;
31872;SDS011;22407;42.820;23.374;2024-02-21T12:59:04;15.90;;;7.30;;
31872;SDS011;22407;42.820;23.374;2024-02-21T13:01:30;13.63;;;7.18;;
31872;SDS011;22407;42.820;23.374;2024-02-21T13:03:56;15.20;;;7.23;;
31872;SDS011;22407;42.820;23.374;2024-02-21T13:06:22;13.80;;;6.78;;
31872;SDS011;22407;42.820;23.374;2024-02-21T13:08:48;13.88;;;6.65;;
31872;SDS011;22407;42.820;23.374;2024-02-21T13:11:15;15.03;;;6.80;;
31872;SDS011;22407;42.820;23.374;2024-02-21T13:13:41;13.23;;;6.60;;
31872;SDS011;22407;42.820;23.374;2024-02-21T13:16:07;12.87;;;6.10;;
31872;SDS011;22407;42.820;23.374;2024-02-21T13:18:32;32.00;;;10.55;;
31872;SDS011;22407;42.820;23.374;2024-02-21T13:21:00;18.27;;;7.93;;
31872;SDS011;22407;42.820;23.374;2024-02-21T13:23:26;20.02;;;8.77;;
31872;SDS011;22407;42.820;23.374;2024-02-21T13:25:51;26.10;;;9.47;;
31872;SDS011;22407;42.820;23.374;2024-02-21T13:28:16;14.38;;;5.93;;
31872;SDS011;22407;42.820;23.374;2024-02-21T13:30:42;16.47;;;6.70;;
31872;SDS011;22407;42.820;23.374;2024-02-21T13:33:08;12.90;;;6.32;;
31872;SDS011;22407;42.820;23.374;2024-02-21T13:35:35;15.67;;;7.23;;
31872;SDS011;22407;42.820;23.374;2024-02-21T13:38:01;16.25;;;7.95;;
31872;SDS011;22407;42.820;23.374;2024-02-21T13:40:28;16.92;;;7.05;;
31872;SDS011;22407;42.820;23.374;2024-02-21T13:42:53;15.33;;;7.43;;
31872;SDS011;22407;42.820;23.374;2024-02-21T13:45:19;16.42;;;7.43;;
31872;SDS011;22407;42.820;23.374;2024-02-21T13:47:45;23.47;;;9.23;;
31872;SDS011;22407;42.820;23.374;2024-02-21T13:50:11;15.90;;;7.35;;
31872;SDS011;22407;42.820;23.374;2024-02-21T13:52:37;12.95;;;5.93;;
31872;SDS011;22407;42.820;23.374;2024-02-21T13:55:03;15.27;;;6.93;;
31872;SDS011;22407;42.820;23.374;2024-02-21T13:57:28;15.98;;;7.32;;
31872;SDS011;22407;42.820;23.374;2024-02-21T13:59:54;18.25;;;8.25;;
31872;SDS011;22407;42.820;23.374;2024-02-21T14:02:20;13.57;;;6.90;;
31872;SDS011;22407;42.820;23.374;2024-02-21T14:04:46;16.15;;;7.85;;
31872;SDS011;22407;42.820;23.374;2024-02-21T14:07:12;13.68;;;6.45;;
31872;SDS011;22407;42.820;23.374;2024-02-21T14:09:37;14.93;;;6.90;;
31872;SDS011;22407;42.820;23.374;2024-02-21T14:12:03;16.73;;;7.30;;
31872;SDS011;22407;42.820;23.374;2024-02-21T14:14:33;36.05;;;11.77;;
31872;SDS011;22407;42.820;23.374;2024-02-21T14:17:00;17.50;;;7.38;;
31872;SDS011;22407;42.820;23.374;2024-02-21T14:19:25;21.10;;;8.80;;
31872;SDS011;22407;42.820;23.374;2024-02-21T14:21:51;20.00;;;7.70;;
31872;SDS011;22407;42.820;23.374;2024-02-21T14:24:18;24.40;;;9.90;;